sensor_id;sensor_type;location;lat;lon;timestamp;P1;durP1;ratioP1;P2;durP2;ratioP2
35518;SDS011;21627;48.216;16.482;2023-03-19T00:00:45;19.63;;;8.93;;
35518;SDS011;21627;48.216;16.482;2023-03-19T00:03:12;16.75;;;8.90;;
35518;SDS011;21627;48.216;16.482;2023-03-19T00:05:39;13.77;;;8.13;;
35518;SDS011;21627;48.216;16.482;2023-03-19T00:08:07;13.98;;;8.27;;
35518;SDS011;21627;48.216;16.482;2023-03-19T00:10:36;16.58;;;8.05;;
35518;SDS011;21627;48.216;16.482;2023-03-19T00:13:05;15.00;;;8.77;;
35518;SDS011;21627;48.216;16.482;2023-03-19T00:15:32;13.63;;;8.80;;
35518;SDS011;21627;48.216;16.482;2023-03-19T00:18:00;15.82;;;8.88;;
35518;SDS011;21627;48.216;16.482;2023-03-19T00:20:27;12.65;;;8.55;;
35518;SDS011;21627;48.216;16.482;2023-03-19T00:22:54;14.80;;;8.63;;
35518;SDS011;21627;48.216;16.482;2023-03-19T00:25:21;14.65;;;8.57;;
35518;SDS011;21627;48.216;16.482;2023-03-19T00:27:49;16.17;;;8.18;;
35518;SDS011;21627;48.216;16.482;2023-03-19T00:30:18;11.90;;;7.82;;
35518;SDS011;21627;48.216;16.482;2023-03-19T00:32:45;16.25;;;8.32;;
35518;SDS011;21627;48.216;16.482;2023-03-19T00:35:13;13.95;;;8.05;;
35518;SDS011;21627;48.216;16.482;2023-03-19T00:37:41;14.55;;;7.93;;
35518;SDS011;21627;48.216;16.482;2023-03-19T00:40:08;17.63;;;9.05;;
35518;SDS011;21627;48.216;16.482;2023-03-19T00:42:37;16.58;;;7.90;;
35518;SDS011;21627;48.216;16.482;2023-03-19T00:45:04;13.95;;;8.85;;
35518;SDS011;21627;48.216;16.482;2023-03-19T00:47:32;15.50;;;7.97;;
35518;SDS011;21627;48.216;16.482;2023-03-19T00:50:00;23.08;;;9.05;;
35518;SDS011;21627;48.216;16.482;2023-03-19T00:52:28;13.93;;;8.55;;
35518;SDS011;21627;48.216;16.482;2023-03-19T00:54:55;11.25;;;7.50;;
35518;SDS011;21627;48.216;16.482;2023-03-19T00:57:23;15.95;;;8.48;;
35518;SDS011;21627;48.216;16.482;2023-03-19T00:59:50;13.35;;;7.97;;
35518;SDS011;21627;48.216;16.482;2023-03-19T01:02:17;14.60;;;8.18;;
35518;SDS011;21627;48.216;16.482;2023-03-19T01:04:46;14.90;;;8.00;;
35518;SDS011;21627;48.216;16.482;2023-03-19T01:07:14;14.40;;;7.75;;
35518;SDS011;21627;48.216;16.482;2023-03-19T01:09:42;14.38;;;7.38;;
35518;SDS011;21627;48.216;16.482;2023-03-19T01:12:09;11.15;;;7.32;;
35518;SDS011;21627;48.216;16.482;2023-03-19T01:14:36;13.02;;;7.82;;
35518;SDS011;21627;48.216;16.482;2023-03-19T01:17:03;15.20;;;8.15;;
35518;SDS011;21627;48.216;16.482;2023-03-19T01:19:30;12.52;;;7.43;;
35518;SDS011;21627;48.216;16.482;2023-03-19T01:21:58;13.07;;;7.47;;
35518;SDS011;21627;48.216;16.482;2023-03-19T01:24:28;13.63;;;7.75;;
35518;SDS011;21627;48.216;16.482;2023-03-19T01:26:56;19.02;;;8.00;;
35518;SDS011;21627;48.216;16.482;2023-03-19T01:29:24;12.80;;;8.10;;
35518;SDS011;21627;48.216;16.482;2023-03-19T01:31:51;12.95;;;8.23;;
35518;SDS011;21627;48.216;16.482;2023-03-19T01:34:18;18.20;;;8.02;;
35518;SDS011;21627;48.216;16.482;2023-03-19T01:36:46;12.95;;;8.57;;
35518;SDS011;21627;48.216;16.482;2023-03-19T01:39:14;19.73;;;8.57;;
35518;SDS011;21627;48.216;16.482;2023-03-19T01:41:44;17.63;;;9.00;;
35518;SDS011;21627;48.216;16.482;2023-03-19T01:44:24;27.63;;;13.07;;
35518;SDS011;21627;48.216;16.482;2023-03-19T01:46:57;16.25;;;10.68;;
35518;SDS011;21627;48.216;16.482;2023-03-19T01:49:27;17.17;;;8.00;;
35518;SDS011;21627;48.216;16.482;2023-03-19T01:51:56;14.13;;;8.63;;
35518;SDS011;21627;48.216;16.482;2023-03-19T01:54:28;17.05;;;8.60;;
35518;SDS011;21627;48.216;16.482;2023-03-19T01:56:58;14.45;;;8.32;;
35518;SDS011;21627;48.216;16.482;2023-03-19T01:59:36;12.45;;;8.13;;
35518;SDS011;21627;48.216;16.482;2023-03-19T02:04:45;18.48;;;8.65;;
35518;SDS011;21627;48.216;16.482;2023-03-19T02:07:14;12.55;;;8.05;;
35518;SDS011;21627;48.216;16.482;2023-03-19T02:09:42;16.48;;;9.27;;
35518;SDS011;21627;48.216;16.482;2023-03-19T02:12:10;14.65;;;8.25;;
35518;SDS011;21627;48.216;16.482;2023-03-19T02:14:39;15.63;;;8.63;;
35518;SDS011;21627;48.216;16.482;2023-03-19T02:17:06;16.40;;;8.77;;
35518;SDS011;21627;48.216;16.482;2023-03-19T02:22:21;16.63;;;9.05;;
35518;SDS011;21627;48.216;16.482;2023-03-19T02:24:55;21.38;;;8.70;;
35518;SDS011;21627;48.216;16.482;2023-03-19T02:27:38;17.33;;;8.98;;
35518;SDS011;21627;48.216;16.482;2023-03-19T02:30:39;16.23;;;9.20;;
35518;SDS011;21627;48.216;16.482;2023-03-19T02:33:00;13.30;;;7.80;;
35518;SDS011;21627;48.216;16.482;2023-03-19T02:35:27;18.45;;;8.90;;
35518;SDS011;21627;48.216;16.482;2023-03-19T02:37:59;15.82;;;9.13;;
35518;SDS011;21627;48.216;16.482;2023-03-19T02:40:29;14.15;;;7.95;;
35518;SDS011;21627;48.216;16.482;2023-03-19T02:43:02;14.90;;;8.30;;
35518;SDS011;21627;48.216;16.482;2023-03-19T02:45:30;14.27;;;8.88;;
35518;SDS011;21627;48.216;16.482;2023-03-19T02:47:58;16.10;;;8.75;;
35518;SDS011;21627;48.216;16.482;2023-03-19T02:50:25;15.27;;;8.70;;
35518;SDS011;21627;48.216;16.482;2023-03-19T02:52:53;14.32;;;8.15;;
35518;SDS011;21627;48.216;16.482;2023-03-19T02:55:20;19.08;;;8.57;;
35518;SDS011;21627;48.216;16.482;2023-03-19T02:57:47;16.88;;;8.85;;
35518;SDS011;21627;48.216;16.482;2023-03-19T03:00:14;13.48;;;8.90;;
35518;SDS011;21627;48.216;16.482;2023-03-19T03:02:46;15.10;;;9.07;;
35518;SDS011;21627;48.216;16.482;2023-03-19T03:05:13;12.77;;;8.93;;
35518;SDS011;21627;48.216;16.482;2023-03-19T03:07:40;15.75;;;9.18;;
35518;SDS011;21627;48.216;16.482;2023-03-19T03:10:10;22.35;;;9.25;;
35518;SDS011;21627;48.216;16.482;2023-03-19T03:12:37;17.83;;;8.93;;
35518;SDS011;21627;48.216;16.482;2023-03-19T03:15:05;15.05;;;9.60;;
35518;SDS011;21627;48.216;16.482;2023-03-19T03:17:37;14.20;;;9.70;;
35518;SDS011;21627;48.216;16.482;2023-03-19T03:20:06;16.45;;;9.75;;
35518;SDS011;21627;48.216;16.482;2023-03-19T03:22:34;13.63;;;9.15;;
35518;SDS011;21627;48.216;16.482;2023-03-19T03:25:02;15.02;;;9.48;;
35518;SDS011;21627;48.216;16.482;2023-03-19T03:27:30;20.20;;;9.32;;
35518;SDS011;21627;48.216;16.482;2023-03-19T03:29:58;22.98;;;10.45;;
35518;SDS011;21627;48.216;16.482;2023-03-19T03:32:26;15.98;;;9.00;;
35518;SDS011;21627;48.216;16.482;2023-03-19T03:34:53;15.43;;;9.30;;
35518;SDS011;21627;48.216;16.482;2023-03-19T03:37:20;14.52;;;9.20;;
35518;SDS011;21627;48.216;16.482;2023-03-19T03:39:47;15.80;;;8.82;;
35518;SDS011;21627;48.216;16.482;2023-03-19T03:42:15;16.50;;;8.90;;
35518;SDS011;21627;48.216;16.482;2023-03-19T03:44:42;18.58;;;10.90;;
35518;SDS011;21627;48.216;16.482;2023-03-19T03:47:10;15.93;;;9.55;;
35518;SDS011;21627;48.216;16.482;2023-03-19T03:49:38;17.60;;;9.82;;
35518;SDS011;21627;48.216;16.482;2023-03-19T03:52:05;13.95;;;9.25;;
35518;SDS011;21627;48.216;16.482;2023-03-19T03:54:34;20.88;;;10.02;;
35518;SDS011;21627;48.216;16.482;2023-03-19T03:57:01;20.25;;;9.85;;
35518;SDS011;21627;48.216;16.482;2023-03-19T03:59:29;13.45;;;9.27;;
35518;SDS011;21627;48.216;16.482;2023-03-19T04:01:56;17.17;;;9.80;;
35518;SDS011;21627;48.216;16.482;2023-03-19T04:04:23;17.92;;;10.32;;
35518;SDS011;21627;48.216;16.482;2023-03-19T04:06:51;22.30;;;11.05;;
35518;SDS011;21627;48.216;16.482;2023-03-19T04:09:19;21.20;;;10.20;;
35518;SDS011;21627;48.216;16.482;2023-03-19T04:11:46;15.38;;;10.30;;
35518;SDS011;21627;48.216;16.482;2023-03-19T04:14:16;16.25;;;9.75;;
35518;SDS011;21627;48.216;16.482;2023-03-19T04:16:44;16.25;;;10.18;;
35518;SDS011;21627;48.216;16.482;2023-03-19T04:19:12;14.32;;;10.35;;
35518;SDS011;21627;48.216;16.482;2023-03-19T04:21:39;16.25;;;10.73;;
35518;SDS011;21627;48.216;16.482;2023-03-19T04:24:07;18.70;;;10.68;;
35518;SDS011;21627;48.216;16.482;2023-03-19T04:26:36;14.60;;;9.50;;
35518;SDS011;21627;48.216;16.482;2023-03-19T04:29:04;19.83;;;11.00;;
35518;SDS011;21627;48.216;16.482;2023-03-19T04:31:34;17.98;;;11.18;;
35518;SDS011;21627;48.216;16.482;2023-03-19T04:34:01;16.50;;;10.90;;
35518;SDS011;21627;48.216;16.482;2023-03-19T04:36:28;18.35;;;11.10;;
35518;SDS011;21627;48.216;16.482;2023-03-19T04:38:56;19.10;;;10.95;;
35518;SDS011;21627;48.216;16.482;2023-03-19T04:41:23;16.23;;;10.23;;
35518;SDS011;21627;48.216;16.482;2023-03-19T04:43:51;23.08;;;11.25;;
35518;SDS011;21627;48.216;16.482;2023-03-19T04:46:18;18.10;;;10.88;;
35518;SDS011;21627;48.216;16.482;2023-03-19T04:48:45;19.23;;;11.77;;
35518;SDS011;21627;48.216;16.482;2023-03-19T04:51:12;17.15;;;11.10;;
35518;SDS011;21627;48.216;16.482;2023-03-19T04:53:40;16.35;;;10.88;;
35518;SDS011;21627;48.216;16.482;2023-03-19T04:56:07;16.88;;;10.70;;
35518;SDS011;21627;48.216;16.482;2023-03-19T04:58:35;21.07;;;11.93;;
35518;SDS011;21627;48.216;16.482;2023-03-19T05:01:02;19.33;;;11.95;;
35518;SDS011;21627;48.216;16.482;2023-03-19T05:03:29;23.30;;;11.10;;
35518;SDS011;21627;48.216;16.482;2023-03-19T05:05:57;20.30;;;11.03;;
35518;SDS011;21627;48.216;16.482;2023-03-19T05:08:24;16.85;;;10.45;;
35518;SDS011;21627;48.216;16.482;2023-03-19T05:10:51;25.42;;;12.27;;
35518;SDS011;21627;48.216;16.482;2023-03-19T05:13:19;18.58;;;11.68;;
35518;SDS011;21627;48.216;16.482;2023-03-19T05:15:47;17.37;;;11.37;;
35518;SDS011;21627;48.216;16.482;2023-03-19T05:18:14;18.97;;;11.53;;
35518;SDS011;21627;48.216;16.482;2023-03-19T05:20:41;18.95;;;12.55;;
35518;SDS011;21627;48.216;16.482;2023-03-19T05:23:09;19.38;;;11.93;;
35518;SDS011;21627;48.216;16.482;2023-03-19T05:25:36;20.48;;;11.65;;
35518;SDS011;21627;48.216;16.482;2023-03-19T05:28:04;20.13;;;12.52;;
35518;SDS011;21627;48.216;16.482;2023-03-19T05:30:33;23.10;;;13.82;;
35518;SDS011;21627;48.216;16.482;2023-03-19T05:33:01;19.77;;;13.57;;
35518;SDS011;21627;48.216;16.482;2023-03-19T05:35:29;23.43;;;13.67;;
35518;SDS011;21627;48.216;16.482;2023-03-19T05:37:57;20.20;;;12.90;;
35518;SDS011;21627;48.216;16.482;2023-03-19T05:40:24;27.20;;;14.93;;
35518;SDS011;21627;48.216;16.482;2023-03-19T05:42:51;25.50;;;14.67;;
35518;SDS011;21627;48.216;16.482;2023-03-19T05:45:20;31.87;;;16.20;;
35518;SDS011;21627;48.216;16.482;2023-03-19T05:47:47;28.10;;;15.33;;
35518;SDS011;21627;48.216;16.482;2023-03-19T05:50:16;25.30;;;14.13;;
35518;SDS011;21627;48.216;16.482;2023-03-19T05:52:44;27.48;;;15.02;;
35518;SDS011;21627;48.216;16.482;2023-03-19T05:55:11;24.10;;;14.07;;
35518;SDS011;21627;48.216;16.482;2023-03-19T05:57:38;23.02;;;13.75;;
35518;SDS011;21627;48.216;16.482;2023-03-19T06:00:06;23.20;;;12.07;;
35518;SDS011;21627;48.216;16.482;2023-03-19T06:02:34;20.52;;;12.90;;
35518;SDS011;21627;48.216;16.482;2023-03-19T06:05:03;21.40;;;13.95;;
35518;SDS011;21627;48.216;16.482;2023-03-19T06:07:31;25.83;;;13.88;;
35518;SDS011;21627;48.216;16.482;2023-03-19T06:09:58;24.02;;;13.40;;
35518;SDS011;21627;48.216;16.482;2023-03-19T06:12:25;26.23;;;14.25;;
35518;SDS011;21627;48.216;16.482;2023-03-19T06:14:52;23.80;;;14.13;;
35518;SDS011;21627;48.216;16.482;2023-03-19T06:17:20;26.65;;;13.60;;
35518;SDS011;21627;48.216;16.482;2023-03-19T06:19:47;27.00;;;13.15;;
35518;SDS011;21627;48.216;16.482;2023-03-19T06:22:14;22.45;;;13.48;;
35518;SDS011;21627;48.216;16.482;2023-03-19T06:24:42;24.38;;;14.60;;
35518;SDS011;21627;48.216;16.482;2023-03-19T06:27:09;23.77;;;13.10;;
35518;SDS011;21627;48.216;16.482;2023-03-19T06:29:36;20.92;;;12.30;;
35518;SDS011;21627;48.216;16.482;2023-03-19T06:32:03;21.83;;;13.73;;
35518;SDS011;21627;48.216;16.482;2023-03-19T06:34:31;22.30;;;12.98;;
35518;SDS011;21627;48.216;16.482;2023-03-19T06:36:58;26.48;;;13.20;;
35518;SDS011;21627;48.216;16.482;2023-03-19T06:39:25;23.20;;;13.35;;
35518;SDS011;21627;48.216;16.482;2023-03-19T06:41:53;21.38;;;12.57;;
35518;SDS011;21627;48.216;16.482;2023-03-19T06:44:20;23.15;;;12.90;;
35518;SDS011;21627;48.216;16.482;2023-03-19T06:46:47;20.67;;;12.88;;
35518;SDS011;21627;48.216;16.482;2023-03-19T06:49:14;24.75;;;13.57;;
35518;SDS011;21627;48.216;16.482;2023-03-19T06:51:42;20.10;;;13.00;;
35518;SDS011;21627;48.216;16.482;2023-03-19T06:54:09;24.60;;;14.20;;
35518;SDS011;21627;48.216;16.482;2023-03-19T06:56:36;25.65;;;13.85;;
35518;SDS011;21627;48.216;16.482;2023-03-19T06:59:03;22.15;;;12.73;;
35518;SDS011;21627;48.216;16.482;2023-03-19T07:01:30;23.88;;;13.00;;
35518;SDS011;21627;48.216;16.482;2023-03-19T07:03:58;19.90;;;12.48;;
35518;SDS011;21627;48.216;16.482;2023-03-19T07:06:25;20.35;;;13.07;;
35518;SDS011;21627;48.216;16.482;2023-03-19T07:08:52;20.20;;;12.20;;
35518;SDS011;21627;48.216;16.482;2023-03-19T07:11:20;22.10;;;12.63;;
35518;SDS011;21627;48.216;16.482;2023-03-19T07:13:47;20.15;;;12.90;;
35518;SDS011;21627;48.216;16.482;2023-03-19T07:16:14;22.85;;;12.55;;
35518;SDS011;21627;48.216;16.482;2023-03-19T07:18:41;20.52;;;12.93;;
35518;SDS011;21627;48.216;16.482;2023-03-19T07:21:08;20.48;;;12.18;;
35518;SDS011;21627;48.216;16.482;2023-03-19T07:23:35;22.55;;;12.95;;
35518;SDS011;21627;48.216;16.482;2023-03-19T07:26:03;22.10;;;12.23;;
35518;SDS011;21627;48.216;16.482;2023-03-19T07:28:31;24.00;;;12.45;;
35518;SDS011;21627;48.216;16.482;2023-03-19T07:30:58;20.27;;;11.90;;
35518;SDS011;21627;48.216;16.482;2023-03-19T07:33:25;22.40;;;12.60;;
35518;SDS011;21627;48.216;16.482;2023-03-19T07:35:52;21.10;;;13.40;;
35518;SDS011;21627;48.216;16.482;2023-03-19T07:38:19;19.00;;;11.88;;
35518;SDS011;21627;48.216;16.482;2023-03-19T07:40:46;21.27;;;11.80;;
35518;SDS011;21627;48.216;16.482;2023-03-19T07:43:26;18.83;;;13.00;;
35518;SDS011;21627;48.216;16.482;2023-03-19T07:45:54;20.58;;;12.60;;
35518;SDS011;21627;48.216;16.482;2023-03-19T07:48:21;19.50;;;11.38;;
35518;SDS011;21627;48.216;16.482;2023-03-19T07:50:49;17.65;;;12.27;;
35518;SDS011;21627;48.216;16.482;2023-03-19T07:53:17;19.20;;;11.45;;
35518;SDS011;21627;48.216;16.482;2023-03-19T07:55:44;20.30;;;11.38;;
35518;SDS011;21627;48.216;16.482;2023-03-19T07:58:13;18.98;;;12.40;;
35518;SDS011;21627;48.216;16.482;2023-03-19T08:00:41;17.83;;;11.77;;
35518;SDS011;21627;48.216;16.482;2023-03-19T08:03:08;17.88;;;11.30;;
35518;SDS011;21627;48.216;16.482;2023-03-19T08:05:38;18.52;;;11.82;;
35518;SDS011;21627;48.216;16.482;2023-03-19T08:08:05;19.52;;;11.63;;
35518;SDS011;21627;48.216;16.482;2023-03-19T08:10:32;20.85;;;11.90;;
35518;SDS011;21627;48.216;16.482;2023-03-19T08:13:03;20.92;;;11.70;;
35518;SDS011;21627;48.216;16.482;2023-03-19T08:15:30;20.25;;;11.95;;
35518;SDS011;21627;48.216;16.482;2023-03-19T08:17:58;20.25;;;11.60;;
35518;SDS011;21627;48.216;16.482;2023-03-19T08:20:26;18.30;;;12.13;;
35518;SDS011;21627;48.216;16.482;2023-03-19T08:22:53;18.13;;;12.05;;
35518;SDS011;21627;48.216;16.482;2023-03-19T08:25:22;18.17;;;11.73;;
35518;SDS011;21627;48.216;16.482;2023-03-19T08:27:49;18.77;;;11.95;;
35518;SDS011;21627;48.216;16.482;2023-03-19T08:30:16;19.02;;;12.23;;
35518;SDS011;21627;48.216;16.482;2023-03-19T08:32:44;21.60;;;11.55;;
35518;SDS011;21627;48.216;16.482;2023-03-19T08:35:11;18.10;;;12.68;;
35518;SDS011;21627;48.216;16.482;2023-03-19T08:37:39;18.73;;;12.18;;
35518;SDS011;21627;48.216;16.482;2023-03-19T08:40:06;17.98;;;11.65;;
35518;SDS011;21627;48.216;16.482;2023-03-19T08:42:35;24.75;;;11.90;;
35518;SDS011;21627;48.216;16.482;2023-03-19T08:45:10;16.10;;;10.90;;
35518;SDS011;21627;48.216;16.482;2023-03-19T08:47:40;20.70;;;11.77;;
35518;SDS011;21627;48.216;16.482;2023-03-19T08:50:08;18.15;;;11.55;;
35518;SDS011;21627;48.216;16.482;2023-03-19T08:52:37;17.60;;;11.73;;
35518;SDS011;21627;48.216;16.482;2023-03-19T08:55:04;19.60;;;11.73;;
35518;SDS011;21627;48.216;16.482;2023-03-19T08:57:32;22.08;;;12.20;;
35518;SDS011;21627;48.216;16.482;2023-03-19T09:00:02;18.88;;;11.73;;
35518;SDS011;21627;48.216;16.482;2023-03-19T09:02:31;19.15;;;12.20;;
35518;SDS011;21627;48.216;16.482;2023-03-19T09:04:58;18.52;;;11.50;;
35518;SDS011;21627;48.216;16.482;2023-03-19T09:07:25;18.63;;;12.00;;
35518;SDS011;21627;48.216;16.482;2023-03-19T09:09:52;20.65;;;11.93;;
35518;SDS011;21627;48.216;16.482;2023-03-19T09:12:19;19.15;;;12.40;;
35518;SDS011;21627;48.216;16.482;2023-03-19T09:14:47;21.17;;;11.80;;
35518;SDS011;21627;48.216;16.482;2023-03-19T09:17:14;19.38;;;11.85;;
35518;SDS011;21627;48.216;16.482;2023-03-19T09:19:41;17.88;;;11.20;;
35518;SDS011;21627;48.216;16.482;2023-03-19T09:22:08;19.38;;;11.57;;
35518;SDS011;21627;48.216;16.482;2023-03-19T09:24:35;19.73;;;12.38;;
35518;SDS011;21627;48.216;16.482;2023-03-19T09:27:05;19.23;;;12.65;;
35518;SDS011;21627;48.216;16.482;2023-03-19T09:29:33;21.05;;;12.48;;
35518;SDS011;21627;48.216;16.482;2023-03-19T09:32:00;18.50;;;11.68;;
35518;SDS011;21627;48.216;16.482;2023-03-19T09:34:27;16.63;;;11.30;;
35518;SDS011;21627;48.216;16.482;2023-03-19T09:36:54;16.38;;;11.45;;
35518;SDS011;21627;48.216;16.482;2023-03-19T09:39:22;15.95;;;10.90;;
35518;SDS011;21627;48.216;16.482;2023-03-19T09:45:17;19.40;;;11.68;;
35518;SDS011;21627;48.216;16.482;2023-03-19T09:47:47;18.98;;;11.45;;
35518;SDS011;21627;48.216;16.482;2023-03-19T09:50:20;16.02;;;11.85;;
35518;SDS011;21627;48.216;16.482;2023-03-19T09:52:57;16.70;;;11.10;;
35518;SDS011;21627;48.216;16.482;2023-03-19T09:58:14;17.05;;;11.95;;
35518;SDS011;21627;48.216;16.482;2023-03-19T10:00:46;17.02;;;11.65;;
35518;SDS011;21627;48.216;16.482;2023-03-19T10:03:32;16.85;;;11.60;;
35518;SDS011;21627;48.216;16.482;2023-03-19T10:06:33;16.02;;;11.70;;
35518;SDS011;21627;48.216;16.482;2023-03-19T10:12:05;20.50;;;11.30;;
35518;SDS011;21627;48.216;16.482;2023-03-19T10:15:16;20.75;;;10.60;;
35518;SDS011;21627;48.216;16.482;2023-03-19T10:23:46;15.90;;;10.73;;
35518;SDS011;21627;48.216;16.482;2023-03-19T10:26:39;17.00;;;11.20;;
35518;SDS011;21627;48.216;16.482;2023-03-19T10:29:14;15.15;;;10.60;;
35518;SDS011;21627;48.216;16.482;2023-03-19T10:31:57;17.67;;;11.38;;
35518;SDS011;21627;48.216;16.482;2023-03-19T10:34:46;17.27;;;10.70;;
35518;SDS011;21627;48.216;16.482;2023-03-19T10:39:47;18.35;;;11.18;;
35518;SDS011;21627;48.216;16.482;2023-03-19T10:42:19;15.90;;;10.38;;
35518;SDS011;21627;48.216;16.482;2023-03-19T10:45:26;19.10;;;11.27;;
35518;SDS011;21627;48.216;16.482;2023-03-19T10:48:04;15.15;;;10.07;;
35518;SDS011;21627;48.216;16.482;2023-03-19T10:58:22;17.67;;;11.73;;
35518;SDS011;21627;48.216;16.482;2023-03-19T11:01:09;19.05;;;11.75;;
35518;SDS011;21627;48.216;16.482;2023-03-19T11:03:39;16.33;;;10.60;;
35518;SDS011;21627;48.216;16.482;2023-03-19T11:08:58;15.77;;;10.15;;
35518;SDS011;21627;48.216;16.482;2023-03-19T11:11:49;20.30;;;10.25;;
35518;SDS011;21627;48.216;16.482;2023-03-19T11:19:55;15.88;;;10.10;;
35518;SDS011;21627;48.216;16.482;2023-03-19T11:22:26;16.63;;;10.77;;
35518;SDS011;21627;48.216;16.482;2023-03-19T11:25:02;15.63;;;10.52;;
35518;SDS011;21627;48.216;16.482;2023-03-19T11:27:56;19.80;;;10.50;;
35518;SDS011;21627;48.216;16.482;2023-03-19T11:30:27;18.50;;;10.60;;
35518;SDS011;21627;48.216;16.482;2023-03-19T11:33:29;18.17;;;10.98;;
35518;SDS011;21627;48.216;16.482;2023-03-19T11:36:22;18.17;;;10.43;;
35518;SDS011;21627;48.216;16.482;2023-03-19T11:39:40;18.58;;;10.10;;
35518;SDS011;21627;48.216;16.482;2023-03-19T11:45:16;18.33;;;10.43;;
35518;SDS011;21627;48.216;16.482;2023-03-19T12:05:31;13.57;;;9.85;;
35518;SDS011;21627;48.216;16.482;2023-03-19T12:11:09;18.25;;;9.35;;
35518;SDS011;21627;48.216;16.482;2023-03-19T12:17:22;15.77;;;10.32;;
35518;SDS011;21627;48.216;16.482;2023-03-19T12:20:22;20.75;;;10.15;;
35518;SDS011;21627;48.216;16.482;2023-03-19T12:23:07;23.20;;;10.20;;
35518;SDS011;21627;48.216;16.482;2023-03-19T12:36:44;14.60;;;9.07;;
35518;SDS011;21627;48.216;16.482;2023-03-19T12:42:09;13.63;;;8.75;;
35518;SDS011;21627;48.216;16.482;2023-03-19T12:44:42;21.35;;;9.70;;
35518;SDS011;21627;48.216;16.482;2023-03-19T12:47:21;19.20;;;9.70;;
35518;SDS011;21627;48.216;16.482;2023-03-19T12:57:58;15.23;;;9.60;;
35518;SDS011;21627;48.216;16.482;2023-03-19T13:00:58;19.33;;;10.00;;
35518;SDS011;21627;48.216;16.482;2023-03-19T13:03:53;15.73;;;9.40;;
35518;SDS011;21627;48.216;16.482;2023-03-19T13:06:57;18.13;;;9.52;;
35518;SDS011;21627;48.216;16.482;2023-03-19T13:12:33;13.88;;;9.63;;
35518;SDS011;21627;48.216;16.482;2023-03-19T13:15:05;19.60;;;9.32;;
35518;SDS011;21627;48.216;16.482;2023-03-19T13:23:21;13.18;;;8.70;;
35518;SDS011;21627;48.216;16.482;2023-03-19T13:25:56;16.83;;;9.50;;
35518;SDS011;21627;48.216;16.482;2023-03-19T13:28:29;16.20;;;9.35;;
35518;SDS011;21627;48.216;16.482;2023-03-19T13:31:34;15.70;;;8.93;;
35518;SDS011;21627;48.216;16.482;2023-03-19T13:34:00;21.50;;;9.50;;
35518;SDS011;21627;48.216;16.482;2023-03-19T13:36:40;15.35;;;9.55;;
35518;SDS011;21627;48.216;16.482;2023-03-19T13:39:12;12.20;;;8.38;;
35518;SDS011;21627;48.216;16.482;2023-03-19T13:41:50;15.18;;;8.80;;
35518;SDS011;21627;48.216;16.482;2023-03-19T13:52:44;13.02;;;8.55;;
35518;SDS011;21627;48.216;16.482;2023-03-19T14:01:05;16.55;;;9.63;;
35518;SDS011;21627;48.216;16.482;2023-03-19T14:03:40;13.55;;;8.63;;
35518;SDS011;21627;48.216;16.482;2023-03-19T14:06:45;21.48;;;8.73;;
35518;SDS011;21627;48.216;16.482;2023-03-19T14:09:29;18.13;;;8.85;;
35518;SDS011;21627;48.216;16.482;2023-03-19T14:12:20;12.48;;;7.75;;
35518;SDS011;21627;48.216;16.482;2023-03-19T14:15:15;16.40;;;8.60;;
35518;SDS011;21627;48.216;16.482;2023-03-19T14:17:54;14.00;;;8.05;;
35518;SDS011;21627;48.216;16.482;2023-03-19T14:20:32;17.15;;;10.15;;
35518;SDS011;21627;48.216;16.482;2023-03-19T14:23:34;16.63;;;9.57;;
35518;SDS011;21627;48.216;16.482;2023-03-19T14:26:16;16.77;;;9.90;;
35518;SDS011;21627;48.216;16.482;2023-03-19T14:29:01;16.45;;;8.73;;
35518;SDS011;21627;48.216;16.482;2023-03-19T14:34:35;15.20;;;9.00;;
35518;SDS011;21627;48.216;16.482;2023-03-19T14:37:28;15.35;;;8.80;;
35518;SDS011;21627;48.216;16.482;2023-03-19T14:52:24;15.80;;;8.30;;
35518;SDS011;21627;48.216;16.482;2023-03-19T14:55:01;16.25;;;7.95;;
35518;SDS011;21627;48.216;16.482;2023-03-19T14:57:35;14.50;;;8.20;;
35518;SDS011;21627;48.216;16.482;2023-03-19T15:00:04;13.95;;;8.60;;
35518;SDS011;21627;48.216;16.482;2023-03-19T15:05:23;13.33;;;8.07;;
35518;SDS011;21627;48.216;16.482;2023-03-19T15:08:03;16.58;;;8.40;;
35518;SDS011;21627;48.216;16.482;2023-03-19T15:10:43;16.50;;;7.82;;
35518;SDS011;21627;48.216;16.482;2023-03-19T15:19:45;17.00;;;7.80;;
35518;SDS011;21627;48.216;16.482;2023-03-19T15:22:13;14.18;;;8.38;;
35518;SDS011;21627;48.216;16.482;2023-03-19T15:24:46;17.08;;;7.32;;
35518;SDS011;21627;48.216;16.482;2023-03-19T15:27:16;13.02;;;7.80;;
35518;SDS011;21627;48.216;16.482;2023-03-19T15:29:51;12.23;;;7.82;;
35518;SDS011;21627;48.216;16.482;2023-03-19T15:32:38;14.05;;;8.52;;
35518;SDS011;21627;48.216;16.482;2023-03-19T15:35:30;18.88;;;10.60;;
35518;SDS011;21627;48.216;16.482;2023-03-19T15:38:06;15.90;;;8.88;;
35518;SDS011;21627;48.216;16.482;2023-03-19T15:40:39;12.00;;;7.68;;
35518;SDS011;21627;48.216;16.482;2023-03-19T15:43:09;20.52;;;9.02;;
35518;SDS011;21627;48.216;16.482;2023-03-19T15:45:40;15.55;;;8.75;;
35518;SDS011;21627;48.216;16.482;2023-03-19T15:48:21;16.73;;;9.68;;
35518;SDS011;21627;48.216;16.482;2023-03-19T15:51:04;18.92;;;9.40;;
35518;SDS011;21627;48.216;16.482;2023-03-19T15:53:34;17.85;;;8.90;;
35518;SDS011;21627;48.216;16.482;2023-03-19T15:56:06;18.08;;;8.98;;
35518;SDS011;21627;48.216;16.482;2023-03-19T15:58:37;17.73;;;9.48;;
35518;SDS011;21627;48.216;16.482;2023-03-19T16:01:11;22.48;;;9.77;;
35518;SDS011;21627;48.216;16.482;2023-03-19T16:03:41;14.40;;;8.65;;
35518;SDS011;21627;48.216;16.482;2023-03-19T16:06:19;14.30;;;8.27;;
35518;SDS011;21627;48.216;16.482;2023-03-19T16:08:53;19.33;;;10.52;;
35518;SDS011;21627;48.216;16.482;2023-03-19T16:11:42;18.45;;;8.50;;
35518;SDS011;21627;48.216;16.482;2023-03-19T16:17:12;17.98;;;8.75;;
35518;SDS011;21627;48.216;16.482;2023-03-19T16:22:23;15.90;;;8.98;;
35518;SDS011;21627;48.216;16.482;2023-03-19T16:24:56;16.92;;;8.45;;
35518;SDS011;21627;48.216;16.482;2023-03-19T16:27:32;16.88;;;8.23;;
35518;SDS011;21627;48.216;16.482;2023-03-19T16:32:58;17.90;;;8.85;;
35518;SDS011;21627;48.216;16.482;2023-03-19T16:35:33;13.98;;;8.43;;
35518;SDS011;21627;48.216;16.482;2023-03-19T16:41:15;22.05;;;8.32;;
35518;SDS011;21627;48.216;16.482;2023-03-19T16:43:49;15.15;;;8.35;;
35518;SDS011;21627;48.216;16.482;2023-03-19T16:46:22;15.50;;;7.93;;
35518;SDS011;21627;48.216;16.482;2023-03-19T16:48:52;13.00;;;7.55;;
35518;SDS011;21627;48.216;16.482;2023-03-19T16:51:22;16.83;;;8.07;;
35518;SDS011;21627;48.216;16.482;2023-03-19T16:53:51;14.43;;;7.82;;
35518;SDS011;21627;48.216;16.482;2023-03-19T16:56:19;12.95;;;7.57;;
35518;SDS011;21627;48.216;16.482;2023-03-19T16:58:48;13.43;;;8.32;;
35518;SDS011;21627;48.216;16.482;2023-03-19T17:01:18;12.20;;;7.22;;
35518;SDS011;21627;48.216;16.482;2023-03-19T17:03:55;14.45;;;7.65;;
35518;SDS011;21627;48.216;16.482;2023-03-19T17:06:25;13.90;;;8.40;;
35518;SDS011;21627;48.216;16.482;2023-03-19T17:08:58;12.40;;;7.80;;